Time;durP1;ratioP1;P1;durP2;ratioP2;P2;SDS_P1;SDS_P2;PMS_P1;PMS_P2;Temp;Humidity;BMP_temperature;BMP_pressure;BME280_temperature;BME280_humidity;BME280_pressure;Samples;Min_cycle;Max_cycle;Signal;HPM_P1;HPM_P2
2023/06/10 00:01:25;;;;;;;22.60;13.70;;;;;;;19.57;57.82;100308.18;109462;1276;22090;-87
2023/06/10 00:12:49;;;;;;;;;;;;;;;;;;;;;
2023/06/10 00:15:22;;;;;;;15.20;12.30;;;;;;;19.45;58.11;100305.20;106662;1308;22075;-86
2023/06/10 00:18:24;;;;;;;12.30;11.00;;;;;;;19.45;58.06;100302.69;106711;1307;22103;-87
2023/06/10 00:21:27;;;;;;;14.60;13.10;;;;;;;19.45;57.93;100308.38;106691;1307;22025;-88
2023/06/10 00:24:02;;;;;;;;;;;;;;;19.46;57.94;100312.69;106778;1305;22243;-87
2023/06/10 00:26:45;;;;;;;13.60;12.30;;;;;;;19.47;57.92;100316.64;107429;1297;21995;-85
2023/06/10 00:29:33;;;;;;;13.50;12.20;;;;;;;19.46;58.26;100313.08;108019;1297;22035;-89
2023/06/10 00:32:44;;;;;;;12.50;11.30;;;;;;;19.46;58.08;100314.48;107811;1297;22216;-89
2023/06/10 00:36:37;;;;;;;13.80;10.30;;;;;;;19.46;57.92;100319.57;108112;1293;22900;-87
2023/06/10 00:39:53;;;;;;;12.00;9.60;;;;;;;19.45;57.96;100323.90;108357;1293;22006;-86
2023/06/10 00:43:22;;;;;;;12.20;10.00;;;;;;;19.47;57.66;100327.06;108701;1289;22804;-88
2023/06/10 00:47:14;;;;;;;;;;;;;;;;;;;;;
2023/06/10 00:50:44;;;;;;;;;;;;;;;;;;;;;
2023/06/10 00:54:25;;;;;;;;;;;;;;;;;;;;;
2023/06/10 01:01:21;;;;;;;14.70;9.60;;;;;;;19.65;57.73;100326.98;109237;1278;22027;-87
2023/06/10 01:04:48;;;;;;;17.00;10.40;;;;;;;19.67;57.71;100331.23;109093;1278;21964;-88
2023/06/10 01:08:30;;;;;;;;;;;;;;;;;;;;;
2023/06/10 01:12:19;;;;;;;12.70;11.70;;;;;;;19.62;58.77;100336.94;108917;1283;22015;-86
2023/06/10 01:15:42;;;;;;;13.60;11.70;;;;;;;19.58;58.97;100337.89;108678;1285;22914;-86
2023/06/10 01:19:11;;;;;;;13.30;11.10;;;;;;;19.59;59.05;100334.52;108746;1283;22002;-87
2023/06/10 01:22:16;;;;;;;;;;;;;;;19.58;59.14;100334.02;108161;1295;22007;-86
2023/06/10 01:25:35;;;;;;;13.70;10.50;;;;;;;19.50;59.56;100331.62;107592;1299;22019;-88
2023/06/10 01:28:47;;;;;;;17.50;12.50;;;;;;;19.50;59.76;100331.12;107071;1304;22129;-86
2023/06/10 01:32:14;;;;;;;;;;;;;;;;;;;;;
2023/06/10 01:35:42;;;;;;;14.80;11.40;;;;;;;19.46;59.92;100328.95;107625;1299;22891;-85
2023/06/10 01:38:54;;;;;;;14.40;11.60;;;;;;;19.43;60.49;100323.84;107858;1294;23056;-83
2023/06/10 01:42:10;;;;;;;;;;;;;;;;;;;;;
2023/06/10 01:45:49;;;;;;;14.60;12.60;;;;;;;19.38;60.94;100322.80;109895;1270;21976;-86
2023/06/10 01:49:34;;;;;;;;;;;;;;;;;;;;;
2023/06/10 01:56:20;;;;;;;14.40;13.00;;;;;;;19.28;61.12;100326.89;110076;1265;21981;-86
2023/06/10 02:00:16;;;;;;;15.40;13.70;;;;;;;19.24;61.31;100327.38;110019;1270;23646;-87
2023/06/10 02:04:24;;;;;;;;;;;;;;;;;;;;;
2023/06/10 02:07:52;;;;;;;15.90;12.80;;;;;;;19.23;61.45;100342.30;110877;1262;22044;-88
2023/06/10 02:11:45;;;;;;;;;;;;;;;;;;;;;
2023/06/10 02:15:55;;;;;;;;;;;;;;;;;;;;;
2023/06/10 02:19:07;;;;;;;14.10;12.40;;;;;;;19.21;61.13;100337.48;110899;1262;21980;-88
2023/06/10 02:22:54;;;;;;;;;;;;;;;;;;;;;
2023/06/10 02:26:46;;;;;;;13.40;11.70;;;;;;;19.21;61.29;100341.02;110059;1270;22239;-86
2023/06/10 02:30:09;;;;;;;14.40;13.00;;;;;;;19.23;61.18;100336.96;109959;1270;22907;-86
2023/06/10 02:33:54;;;;;;;13.50;11.30;;;;;;;19.26;61.08;100338.35;109994;1270;22005;-86
2023/06/10 02:37:19;;;;;;;13.20;12.10;;;;;;;19.31;60.89;100340.48;110145;1270;21967;-86
2023/06/10 02:40:37;;;;;;;13.10;11.70;;;;;;;19.35;60.81;100341.41;109871;1270;24381;-87
2023/06/10 02:44:01;;;;;;;;;;;;;;;19.40;60.61;100343.84;109560;1275;21978;-85
2023/06/10 02:47:11;;;;;;;14.40;11.80;;;;;;;19.36;60.67;100346.08;109158;1274;22746;-85
2023/06/10 02:50:45;;;;;;;;;;;;;;;;;;;;;
2023/06/10 02:54:04;;;;;;;15.60;14.10;;;;;;;19.44;60.37;100356.05;109112;1280;22047;-87
2023/06/10 02:57:26;;;;;;;15.50;14.10;;;;;;;19.49;60.29;100358.38;108569;1287;22007;-83
2023/06/10 03:00:44;;;;;;;;;;;;;;;;;;;;;
2023/06/10 03:03:30;;;;;;;14.00;12.50;;;;;;;19.54;59.90;100369.30;108991;1282;24258;-81
2023/06/10 03:07:29;;;;;;;19.30;14.60;;;;;;;19.55;59.96;100367.63;108900;1283;22860;-84
2023/06/10 03:10:19;;;;;;;15.10;13.50;;;;;;;19.59;59.95;100372.80;108525;1289;22009;-85
2023/06/10 03:13:46;;;;;;;14.60;12.60;;;;;;;19.60;59.76;100375.70;108515;1289;22031;-83
2023/06/10 03:16:47;;;;;;;15.40;13.50;;;;;;;19.60;59.86;100377.27;109166;1277;21820;-82
2023/06/10 03:20:05;;;;;;;19.20;13.40;;;;;;;19.61;59.89;100380.08;109161;1279;22005;-84
2023/06/10 03:22:51;;;;;;;13.50;12.20;;;;;;;19.61;59.96;100381.98;109164;1274;22628;-82
2023/06/10 03:25:30;;;;;;;14.90;13.10;;;;;;;19.64;59.88;100384.59;109169;1277;22009;-83
2023/06/10 03:28:12;;;;;;;16.00;12.80;;;;;;;19.67;59.71;100382.45;109753;1271;23186;-81
2023/06/10 03:30:48;;;;;;;13.70;12.50;;;;;;;19.70;59.84;100381.00;109835;1272;22006;-84
2023/06/10 03:33:22;;;;;;;13.90;12.50;;;;;;;19.76;59.78;100379.87;109799;1272;22847;-83
2023/06/10 03:35:55;;;;;;;14.30;12.90;;;;;;;19.79;59.58;100380.29;109970;1270;22465;-82
2023/06/10 03:38:51;;;;;;;14.50;13.00;;;;;;;19.84;59.35;100377.84;109949;1271;22044;-83
2023/06/10 03:42:09;;;;;;;13.20;11.10;;;;;;;19.84;59.01;100374.97;110168;1268;23669;-84
2023/06/10 03:45:25;;;;;;;;;;;;;;;;;;;;;
2023/06/10 03:48:38;;;;;;;11.90;10.80;;;;;;;19.90;58.71;100378.09;110640;1262;21976;-82
2023/06/10 03:51:41;;;;;;;13.00;11.30;;;;;;;19.95;58.31;100381.92;110452;1254;23750;-84
2023/06/10 03:54:56;;;;;;;12.40;10.40;;;;;;;20.00;58.06;100388.63;110110;1267;22565;-83
2023/06/10 03:57:38;;;;;;;11.80;10.60;;;;;;;20.06;57.81;100390.42;110160;1268;22254;-81
2023/06/10 04:00:51;;;;;;;;;;;;;;;;;;;;;
2023/06/10 04:04:06;;;;;;;12.30;10.80;;;;;;;20.22;57.29;100397.52;110338;1268;23738;-83
2023/06/10 04:10:22;;;;;;;;;;;;;;;;;;;;;
2023/06/10 04:13:24;;;;;;;11.30;9.90;;;;;;;20.57;56.53;100395.50;110258;1267;23768;-85
2023/06/10 04:16:27;;;;;;;11.90;10.50;;;;;;;20.78;56.22;100404.83;110056;1268;23627;-84
2023/06/10 04:19:28;;;;;;;14.50;10.40;;;;;;;21.00;55.92;100403.09;109674;1273;21991;-84
2023/06/10 04:23:07;;;;;;;15.20;10.50;;;;;;;21.15;55.40;100408.21;109640;1273;23064;-82
2023/06/10 04:26:05;;;;;;;10.80;9.70;;;;;;;21.24;54.58;100409.10;109200;1277;22280;-85
2023/06/10 04:29:25;;;;;;;;;;;;;;;;;;;;;
2023/06/10 04:32:52;;;;;;;15.00;9.40;;;;;;;21.55;54.27;100408.14;109638;1273;21996;-85
2023/06/10 04:39:33;;;;;;;12.20;8.80;;;;;;;21.84;52.82;100406.79;109902;1269;21990;-85
2023/06/10 04:43:11;;;;;;;15.60;10.30;;;;;;;21.88;52.30;100408.61;109927;1269;22010;-85
2023/06/10 04:46:34;;;;;;;;;;;;;;;;;;;;;
2023/06/10 04:55:15;;;;;;;;;;;;;;;;;;;;;
2023/06/10 04:58:06;;;;;;;10.10;8.30;;;;;;;21.92;51.18;100427.21;110463;1263;21954;-85
2023/06/10 05:01:04;;;;;;;;;;;;;;;;;;;;;
2023/06/10 05:08:46;;;;;;;8.20;7.50;;;;;;;21.88;50.55;100446.29;109295;1277;23612;-89
2023/06/10 05:12:09;;;;;;;8.20;7.40;;;;;;;21.99;50.83;100447.18;109220;1277;22000;-88
2023/06/10 05:15:30;;;;;;;11.40;8.90;;;;;;;22.11;50.31;100448.27;109313;1276;22002;-88
2023/06/10 05:19:18;;;;;;;8.30;7.50;;;;;;;22.19;49.75;100454.48;109320;1273;21997;-87
2023/06/10 05:22:36;;;;;;;;;;;;;;;;;;;;;
2023/06/10 05:26:17;;;;;;;11.20;7.60;;;;;;;23.13;50.14;100454.80;109871;1271;23115;-90
2023/06/10 05:33:33;;;;;;;;;;;;;;;;;;;;;
2023/06/10 05:37:50;;;;;;;;;;;;;;;;;;;;;
2023/06/10 05:45:03;;;;;;;12.10;6.90;;;;;;;25.60;42.60;100447.38;108706;1284;23054;-85
2023/06/10 05:51:41;;;;;;;12.70;6.50;;;;;;;25.41;43.17;100451.84;108377;1291;23127;-87
2023/06/10 05:55:00;;;;;;;7.00;6.30;;;;;;;25.69;43.61;100452.05;107700;1298;22010;-85
2023/06/10 05:57:59;;;;;;;8.30;6.50;;;;;;;26.08;42.94;100456.34;105719;1297;2590544;-83
2023/06/10 06:01:02;;;;;;;;;;;;;;;26.53;41.52;100458.95;107656;1297;23076;-86
2023/06/10 06:03:47;;;;;;;8.50;5.80;;;;;;;26.70;41.13;100458.08;107889;1297;22326;-87
2023/06/10 06:06:41;;;;;;;11.30;6.80;;;;;;;26.98;40.85;100458.48;107768;1297;22522;-85
2023/06/10 06:12:55;;;;;;;6.50;5.80;;;;;;;27.64;39.28;100460.59;107929;1295;22003;-87
2023/06/10 06:15:59;;;;;;;6.40;5.30;;;;;;;27.92;37.86;100459.92;108135;1292;22770;-87
2023/06/10 06:18:28;;;;;;;10.40;6.40;;;;;;;27.92;37.37;100459.73;108718;1281;23644;-86
2023/06/10 06:21:13;;;;;;;9.10;5.90;;;;;;;27.82;36.66;100462.81;109000;1280;23047;-85
2023/06/10 06:23:48;;;;;;;7.30;5.60;;;;;;;27.76;36.33;100463.02;109121;1280;23061;-83
2023/06/10 06:26:45;;;;;;;8.60;5.80;;;;;;;27.74;36.06;100469.59;109100;1280;23103;-85
2023/06/10 06:29:18;;;;;;;11.60;5.20;;;;;;;27.75;35.97;100468.79;109512;1273;23083;-83
2023/06/10 06:31:50;;;;;;;5.00;4.30;;;;;;;27.83;35.58;100471.10;109580;1273;21978;-85
2023/06/10 06:34:22;;;;;;;8.70;5.40;;;;;;;27.79;35.12;100474.71;109701;1273;22157;-83
2023/06/10 06:37:11;;;;;;;6.20;5.20;;;;;;;27.57;34.92;100479.72;109744;1273;21977;-82
2023/06/10 06:39:44;;;;;;;6.80;5.10;;;;;;;27.35;35.04;100481.36;109613;1273;21997;-81
2023/06/10 06:42:16;;;;;;;11.10;5.50;;;;;;;27.26;35.47;100490.54;109624;1273;22072;-83
2023/06/10 06:45:02;;;;;;;8.00;4.90;;;;;;;27.23;35.36;100495.55;109647;1273;23062;-87
2023/06/10 06:47:51;;;;;;;8.80;5.40;;;;;;;27.14;35.24;100495.59;109296;1276;22116;-84
2023/06/10 06:51:01;;;;;;;7.70;5.30;;;;;;;27.25;35.72;100503.60;109703;1270;24390;-84
2023/06/10 06:54:32;;;;;;;9.00;5.20;;;;;;;27.60;35.64;100506.80;109969;1270;22299;-84
2023/06/10 06:57:37;;;;;;;10.50;4.90;;;;;;;28.12;35.17;100507.75;109451;1274;24217;-82
2023/06/10 07:01:11;;;;;;;12.70;5.00;;;;;;;28.49;33.72;100512.75;108962;1278;24499;-85
2023/06/10 07:04:23;;;;;;;9.40;4.80;;;;;;;28.43;32.57;100514.77;109106;1278;23231;-83
2023/06/10 07:07:58;;;;;;;;;;;;;;;;;;;;;
2023/06/10 07:10:58;;;;;;;9.30;4.90;;;;;;;28.59;32.52;100514.98;108824;1280;23067;-85
2023/06/10 07:14:10;;;;;;;5.40;4.30;;;;;;;28.75;31.76;100516.04;108465;1286;22016;-83
2023/06/10 07:17:36;;;;;;;12.10;5.20;;;;;;;28.85;31.72;100520.17;108543;1287;23692;-84
2023/06/10 07:20:41;;;;;;;6.50;5.00;;;;;;;28.85;31.42;100522.52;108765;1284;22003;-84
2023/06/10 07:23:31;;;;;;;6.50;5.10;;;;;;;28.82;31.20;100521.56;108555;1281;23725;-82
2023/06/10 07:26:41;;;;;;;11.70;5.20;;;;;;;28.84;31.50;100525.81;108152;1290;23407;-81
2023/06/10 07:29:32;;;;;;;6.60;5.20;;;;;;;29.10;31.13;100526.88;108268;1286;23775;-82
2023/06/10 07:32:22;;;;;;;8.20;5.20;;;;;;;29.26;30.56;100522.19;108349;1289;22467;-81
2023/06/10 07:35:24;;;;;;;;;;;;;;;;;;;;;
2023/06/10 07:38:42;;;;;;;14.90;5.20;;;;;;;29.51;30.39;100524.34;108732;1284;22032;-81
2023/06/10 07:42:38;;;;;;;11.80;4.40;;;;;;;29.93;30.04;100521.42;108642;1282;21962;-84
2023/06/10 07:46:05;;;;;;;10.00;5.50;;;;;;;30.27;29.13;100524.98;109784;1270;22318;-82
2023/06/10 07:49:07;;;;;;;12.60;5.00;;;;;;;30.40;29.16;100523.27;109642;1272;22103;-82
2023/06/10 07:52:00;;;;;;;11.60;5.40;;;;;;;30.47;28.79;100526.31;109369;1273;23614;-83
2023/06/10 07:54:37;;;;;;;13.90;6.20;;;;;;;30.41;28.47;100529.31;109434;1273;22446;-82
2023/06/10 07:57:23;;;;;;;10.20;5.30;;;;;;;30.15;28.45;100530.83;109485;1273;21979;-78
2023/06/10 07:59:59;;;;;;;8.90;5.30;;;;;;;30.02;28.76;100535.45;109419;1273;22448;-84
2023/06/10 08:02:59;;;;;;;16.30;5.00;;;;;;;29.75;28.74;100534.23;109243;1276;21990;-80
2023/06/10 08:05:28;;;;;;;12.00;5.40;;;;;;;29.51;29.19;100530.82;109113;1277;21992;-82
2023/06/10 08:08:01;;;;;;;8.60;4.50;;;;;;;29.41;29.35;100528.81;109219;1277;21957;-81
2023/06/10 08:10:33;;;;;;;9.00;4.50;;;;;;;29.39;29.57;100530.20;109251;1277;22457;-81
2023/06/10 08:13:03;;;;;;;7.90;5.00;;;;;;;29.45;30.01;100533.98;109139;1276;21958;-81
2023/06/10 08:15:36;;;;;;;10.60;4.70;;;;;;;29.62;29.54;100533.34;109265;1277;21983;-84
2023/06/10 08:18:29;;;;;;;6.00;4.50;;;;;;;29.71;29.30;100526.35;109117;1277;22267;-82
2023/06/10 08:21:13;;;;;;;12.80;5.20;;;;;;;29.90;29.39;100530.89;109287;1276;22059;-81
2023/06/10 08:24:01;;;;;;;6.60;4.40;;;;;;;30.11;29.11;100529.77;109731;1270;23026;-82
2023/06/10 08:26:55;;;;;;;10.70;5.30;;;;;;;30.14;28.71;100526.84;109667;1264;22000;-82
2023/06/10 08:29:45;;;;;;;13.20;5.30;;;;;;;30.17;28.76;100529.87;110113;1264;21987;-81
2023/06/10 08:33:05;;;;;;;8.30;4.40;;;;;;;30.13;28.88;100529.72;109971;1269;21984;-82
2023/06/10 08:35:42;;;;;;;10.20;4.70;;;;;;;30.20;28.95;100536.05;109835;1270;21987;-83
2023/06/10 08:38:55;;;;;;;7.00;4.90;;;;;;;30.16;28.57;100534.24;109876;1270;22022;-81
2023/06/10 08:41:48;;;;;;;9.60;4.80;;;;;;;30.10;28.63;100534.55;109779;1270;22846;-82
2023/06/10 08:44:38;;;;;;;11.20;4.70;;;;;;;30.13;29.05;100527.36;109819;1269;21993;-81
2023/06/10 08:47:22;;;;;;;11.80;5.10;;;;;;;30.27;28.82;100526.23;109739;1270;21971;-83
2023/06/10 08:50:21;;;;;;;8.00;4.20;;;;;;;30.42;28.71;100529.91;109975;1264;22409;-81
2023/06/10 08:53:22;;;;;;;11.30;4.80;;;;;;;30.55;28.40;100530.48;109791;1270;21982;-82
2023/06/10 08:56:06;;;;;;;6.60;4.30;;;;;;;30.56;28.02;100532.46;110045;1270;24152;-81
2023/06/10 08:58:43;;;;;;;11.10;4.80;;;;;;;30.44;28.04;100533.77;109700;1265;22402;-78
2023/06/10 09:01:39;;;;;;;12.00;5.40;;;;;;;30.33;28.29;100533.88;109971;1270;21982;-83
2023/06/10 09:04:17;;;;;;;10.60;4.70;;;;;;;30.23;28.05;100536.85;109169;1275;21982;-80
2023/06/10 09:07:14;;;;;;;11.10;5.40;;;;;;;30.10;28.02;100533.23;109274;1275;22086;-81
2023/06/10 09:09:52;;;;;;;14.10;4.60;;;;;;;30.02;28.53;100534.55;109212;1275;22030;-81
2023/06/10 09:13:01;;;;;;;13.00;4.20;;;;;;;30.12;28.75;100536.00;109413;1271;22443;-81
2023/06/10 09:15:56;;;;;;;9.90;4.90;;;;;;;30.30;28.69;100534.08;109084;1278;22268;-83
2023/06/10 09:18:40;;;;;;;16.80;5.50;;;;;;;30.32;28.08;100536.59;109098;1278;23565;-81
2023/06/10 09:21:20;;;;;;;14.50;4.50;;;;;;;30.31;28.37;100545.28;109038;1277;22038;-82
2023/06/10 09:23:58;;;;;;;10.20;4.20;;;;;;;30.30;27.93;100547.02;109660;1272;23099;-80
2023/06/10 09:26:32;;;;;;;8.80;3.80;;;;;;;30.28;27.80;100542.19;109621;1272;23154;-81
2023/06/10 09:30:00;;;;;;;17.80;4.60;;;;;;;30.50;27.60;100540.52;109694;1272;21974;-82
2023/06/10 09:32:39;;;;;;;9.20;4.30;;;;;;;30.60;27.44;100546.05;109721;1272;23779;-81
2023/06/10 09:35:11;;;;;;;6.20;3.90;;;;;;;30.63;27.36;100550.00;109864;1272;22468;-81
2023/06/10 09:38:08;;;;;;;10.90;3.90;;;;;;;30.63;27.24;100551.73;109710;1272;22744;-80
2023/06/10 09:41:03;;;;;;;9.50;4.10;;;;;;;30.61;27.07;100547.36;109392;1276;21994;-79
2023/06/10 09:43:49;;;;;;;8.10;4.10;;;;;;;30.48;26.91;100546.05;109360;1278;21990;-79
2023/06/10 09:46:24;;;;;;;9.90;4.40;;;;;;;30.34;26.48;100549.09;109640;1270;21983;-82
2023/06/10 09:48:58;;;;;;;8.90;4.30;;;;;;;30.10;26.48;100545.16;109315;1276;21997;-80
2023/06/10 09:51:33;;;;;;;11.50;4.10;;;;;;;29.82;26.48;100537.02;109471;1277;21961;-83
2023/06/10 09:54:12;;;;;;;12.70;4.70;;;;;;;29.72;26.84;100536.39;109330;1276;22301;-84
2023/06/10 09:56:58;;;;;;;8.50;4.60;;;;;;;29.75;26.20;100536.63;109532;1276;22336;-82
2023/06/10 09:59:41;;;;;;;11.00;4.20;;;;;;;29.60;26.00;100535.77;109696;1272;22015;-84
2023/06/10 10:02:20;;;;;;;8.40;4.00;;;;;;;29.52;26.18;100536.39;109806;1271;23641;-83
2023/06/10 10:04:50;;;;;;;6.50;4.40;;;;;;;29.57;26.14;100530.84;109657;1272;23626;-86
2023/06/10 10:07:20;;;;;;;6.70;4.20;;;;;;;29.59;26.44;100528.27;109685;1271;23743;-84
2023/06/10 10:10:08;;;;;;;7.50;4.30;;;;;;;29.58;26.34;100524.04;109667;1275;22480;-85
2023/06/10 10:12:41;;;;;;;9.30;4.60;;;;;;;29.59;26.34;100528.61;109579;1270;22742;-83
2023/06/10 10:15:44;;;;;;;8.00;4.00;;;;;;;29.58;26.43;100528.11;110199;1270;22630;-84
2023/06/10 10:18:28;;;;;;;9.10;3.80;;;;;;;29.54;26.17;100525.58;110012;1270;21942;-84
2023/06/10 10:21:07;;;;;;;7.50;4.20;;;;;;;29.46;25.58;100525.73;109957;1269;21988;-84
2023/06/10 10:24:10;;;;;;;4.30;3.70;;;;;;;29.33;25.67;100522.27;110003;1270;22090;-83
2023/06/10 10:26:50;;;;;;;6.60;3.90;;;;;;;29.26;25.83;100524.66;109914;1270;22020;-84
2023/06/10 10:29:33;;;;;;;4.70;3.80;;;;;;;29.16;25.72;100532.19;109980;1270;23116;-83
2023/06/10 10:32:06;;;;;;;6.40;4.30;;;;;;;29.08;25.22;100539.53;109946;1269;21984;-83
2023/06/10 10:35:12;;;;;;;8.90;4.20;;;;;;;28.88;25.24;100530.38;109943;1268;23717;-82
2023/06/10 10:37:46;;;;;;;5.80;3.60;;;;;;;28.69;24.98;100529.45;110168;1269;22075;-84
2023/06/10 10:40:17;;;;;;;6.30;3.40;;;;;;;28.65;25.01;100528.28;109899;1272;22016;-82
2023/06/10 10:42:48;;;;;;;7.90;3.40;;;;;;;28.61;24.97;100533.20;109733;1272;21938;-83
2023/06/10 10:45:33;;;;;;;8.10;4.40;;;;;;;28.51;25.03;100528.98;109641;1273;23764;-79
2023/06/10 10:48:12;;;;;;;11.60;4.20;;;;;;;28.34;25.03;100530.59;109513;1275;23867;-82
2023/06/10 10:50:42;;;;;;;9.00;3.60;;;;;;;28.22;25.37;100527.32;109326;1276;21983;-83
2023/06/10 10:53:11;;;;;;;6.60;3.70;;;;;;;28.27;24.99;100528.36;109518;1275;22000;-81
2023/06/10 10:55:41;;;;;;;6.20;3.30;;;;;;;28.32;24.32;100532.95;109519;1274;23042;-83
2023/06/10 10:58:16;;;;;;;10.20;4.90;;;;;;;28.34;24.03;100532.24;109719;1270;23195;-82
2023/06/10 11:00:51;;;;;;;6.20;3.30;;;;;;;28.32;23.88;100534.23;110026;1270;22002;-84
2023/06/10 11:03:47;;;;;;;9.40;3.50;;;;;;;28.21;23.20;100533.70;109851;1270;21981;-83
2023/06/10 11:06:18;;;;;;;7.90;3.50;;;;;;;28.06;23.20;100524.61;110056;1265;21938;-84
2023/06/10 11:08:49;;;;;;;7.10;5.40;;;;;;;27.96;23.15;100522.77;109590;1271;21944;-82
2023/06/10 11:11:28;;;;;;;;;;;;;;;27.91;23.24;100520.48;109591;1271;23055;-83
2023/06/10 11:14:09;;;;;;;6.60;3.90;;;;;;;27.78;23.49;100515.75;109933;1265;22706;-82
2023/06/10 11:16:45;;;;;;;8.30;3.90;;;;;;;27.77;24.05;100521.59;109908;1268;23478;-81
2023/06/10 11:20:12;;;;;;;6.70;4.00;;;;;;;27.78;24.63;100514.74;109845;1271;21991;-87
2023/06/10 11:23:29;;;;;;;6.40;3.50;;;;;;;27.75;24.49;100521.07;109628;1275;22015;-85
2023/06/10 11:27:24;;;;;;;9.40;4.00;;;;;;;27.64;23.97;100517.48;109950;1269;22903;-87
2023/06/10 11:30:48;;;;;;;12.60;4.20;;;;;;;27.51;23.49;100519.02;110106;1269;23103;-86
2023/06/10 11:33:44;;;;;;;;;;;;;;;;;;;;;
2023/06/10 11:37:17;;;;;;;5.40;3.30;;;;;;;27.40;23.40;100515.91;110012;1269;22015;-86
2023/06/10 11:40:40;;;;;;;9.10;4.00;;;;;;;27.38;23.16;100508.07;109849;1269;22000;-85
2023/06/10 11:43:45;;;;;;;8.10;3.90;;;;;;;27.39;23.36;100500.67;109942;1268;21994;-85
2023/06/10 11:46:33;;;;;;;5.70;3.50;;;;;;;27.40;23.54;100496.45;109932;1268;21975;-80
2023/06/10 11:49:39;;;;;;;5.80;4.00;;;;;;;27.53;23.79;100492.33;110433;1264;21986;-81
2023/06/10 11:53:13;;;;;;;7.90;3.40;;;;;;;27.71;23.54;100498.70;110661;1264;21970;-81
2023/06/10 11:56:07;;;;;;;7.90;3.60;;;;;;;27.78;23.32;100494.56;109639;1271;22022;-80
2023/06/10 11:59:17;;;;;;;5.80;3.50;;;;;;;27.83;23.19;100493.27;109223;1276;23391;-80
2023/06/10 12:02:35;;;;;;;8.80;4.10;;;;;;;27.78;23.17;100497.85;109359;1276;23123;-81
2023/06/10 12:06:17;;;;;;;;;;;;;;;;;;;;;
2023/06/10 12:09:18;;;;;;;6.40;3.80;;;;;;;27.69;23.12;100492.91;109118;1280;22028;-81
2023/06/10 12:12:25;;;;;;;13.90;3.90;;;;;;;27.72;23.01;100482.83;108847;1282;22018;-82
2023/06/10 12:15:47;;;;;;;8.40;3.70;;;;;;;27.65;22.85;100491.39;109045;1279;21858;-81
2023/06/10 12:18:50;;;;;;;6.60;4.30;;;;;;;27.55;23.01;100491.65;109612;1273;23619;-81
2023/06/10 12:21:47;;;;;;;6.80;4.20;;;;;;;27.59;23.31;100496.52;109620;1273;22021;-83
2023/06/10 12:25:25;;;;;;;7.00;4.00;;;;;;;27.67;23.42;100488.16;110129;1267;22062;-84
2023/06/10 12:29:04;;;;;;;6.90;3.50;;;;;;;27.71;23.18;100488.25;109292;1264;22491;-81
2023/06/10 12:32:05;;;;;;;8.30;5.00;;;;;;;27.76;23.29;100485.00;108835;1283;22010;-81
2023/06/10 12:35:13;;;;;;;6.60;3.80;;;;;;;27.79;23.49;100490.77;108580;1287;22009;-82
2023/06/10 12:38:14;;;;;;;8.30;4.40;;;;;;;27.79;23.51;100483.66;108272;1290;22026;-81
2023/06/10 12:41:35;;;;;;;;;;;;;;;;;;;;;
2023/06/10 12:44:56;;;;;;;24.40;5.40;;;;;;;27.75;23.73;100479.48;108317;1289;23785;-79
2023/06/10 12:48:23;;;;;;;14.50;3.80;;;;;;;27.79;23.24;100482.77;108265;1286;24161;-80
2023/06/10 12:51:39;;;;;;;40.90;6.10;;;;;;;27.79;22.82;100481.65;108536;1287;23742;-79
2023/06/10 12:54:55;;;;;;;4.10;3.50;;;;;;;27.77;22.61;100484.64;108438;1283;21999;-80
2023/06/10 12:57:56;;;;;;;7.60;3.60;;;;;;;27.74;22.68;100481.89;108688;1284;23008;-81
2023/06/10 13:00:52;;;;;;;7.30;4.00;;;;;;;27.76;22.63;100480.05;108531;1285;22467;-80
2023/06/10 13:04:09;;;;;;;6.70;3.80;;;;;;;27.73;22.41;100475.76;108629;1281;22055;-81
2023/06/10 13:07:32;;;;;;;;;;;;;;;;;;;;;
2023/06/10 13:10:41;;;;;;;7.60;4.10;;;;;;;27.59;22.41;100487.63;109720;1272;23815;-79
2023/06/10 13:13:34;;;;;;;10.30;3.40;;;;;;;27.52;22.42;100476.23;109617;1272;22134;-79
2023/06/10 13:20:28;;;;;;;7.30;3.50;;;;;;;27.43;22.12;100467.14;109454;1272;22055;-80
2023/06/10 13:23:35;;;;;;;;;;;;;;;;;;;;;
2023/06/10 13:26:47;;;;;;;;;;;;;;;;;;;;;
2023/06/10 13:29:40;;;;;;;6.10;3.50;;;;;;;27.42;21.31;100474.05;109750;1272;21817;-80
2023/06/10 13:33:33;;;;;;;;;;;;;;;;;;;;;
2023/06/10 13:37:41;;;;;;;3.80;3.40;;;;;;;27.42;22.22;100470.31;109997;1265;21993;-82
2023/06/10 13:40:58;;;;;;;8.00;3.80;;;;;;;27.44;22.46;100471.90;109561;1273;22073;-83
2023/06/10 13:43:58;;;;;;;8.80;3.90;;;;;;;27.47;22.38;100477.67;109293;1277;22022;-81
2023/06/10 13:54:01;;;;;;;;;;;;;;;;;;;;;
2023/06/10 13:56:52;;;;;;;5.40;3.50;;;;;;;26.97;23.07;100455.41;110069;1270;21994;-78
2023/06/10 13:59:40;;;;;;;6.20;3.70;;;;;;;26.96;23.19;100457.98;109754;1270;23631;-80
2023/06/10 14:02:32;;;;;;;9.10;3.40;;;;;;;27.01;23.19;100453.76;109832;1270;23690;-81
2023/06/10 14:05:24;;;;;;;7.00;3.10;;;;;;;27.04;23.04;100454.50;109695;1270;23031;-77
2023/06/10 14:08:34;;;;;;;9.00;3.90;;;;;;;27.00;23.16;100456.52;109139;1275;23065;-78
2023/06/10 14:11:30;;;;;;;5.40;4.00;;;;;;;26.96;23.41;100461.94;109328;1278;22011;-77
2023/06/10 14:14:52;;;;;;;9.30;4.30;;;;;;;26.87;23.31;100455.60;109120;1272;22929;-78
2023/06/10 14:18:03;;;;;;;5.90;3.40;;;;;;;26.84;23.67;100454.92;109116;1278;23065;-81
2023/06/10 14:20:36;;;;;;;9.30;4.20;;;;;;;26.92;23.62;100448.57;109150;1277;21987;-83
2023/06/10 14:23:30;;;;;;;8.60;3.60;;;;;;;26.97;23.49;100449.65;109135;1277;22031;-83
2023/06/10 14:26:07;;;;;;;6.90;3.70;;;;;;;27.00;23.56;100449.25;109257;1273;21993;-84
2023/06/10 14:28:49;;;;;;;7.70;4.60;;;;;;;26.99;23.55;100449.89;109592;1272;22007;-83
2023/06/10 14:31:39;;;;;;;6.50;3.90;;;;;;;26.96;23.62;100447.27;109779;1272;22759;-83
2023/06/10 14:34:18;;;;;;;9.00;4.40;;;;;;;26.97;23.69;100442.05;109621;1272;21977;-84
2023/06/10 14:40:05;;;;;;;8.40;4.20;;;;;;;27.01;23.78;100447.88;109577;1274;21984;-82
2023/06/10 14:43:01;;;;;;;7.30;2.90;;;;;;;26.93;23.99;100453.16;109563;1275;22069;-86
2023/06/10 14:45:55;;;;;;;9.70;4.00;;;;;;;26.88;24.27;100454.57;109439;1275;22842;-83
2023/06/10 14:49:06;;;;;;;;;;;;;;;;;;;;;
2023/06/10 14:52:13;;;;;;;9.00;3.60;;;;;;;26.77;24.24;100449.27;109370;1279;22100;-85
2023/06/10 14:55:10;;;;;;;8.90;4.80;;;;;;;26.73;24.52;100436.84;109228;1280;21999;-84
2023/06/10 14:58:06;;;;;;;4.00;3.00;;;;;;;26.79;24.48;100446.97;109299;1276;21989;-83
2023/06/10 15:01:05;;;;;;;;;;;;;;;;;;;;;
2023/06/10 15:04:28;;;;;;;9.50;4.20;;;;;;;26.75;24.06;100449.36;109542;1276;22010;-84
2023/06/10 15:07:43;;;;;;;8.50;3.80;;;;;;;26.73;24.15;100445.66;109155;1280;22004;-82
2023/06/10 15:11:07;;;;;;;5.80;3.70;;;;;;;26.77;24.15;100448.92;108949;1282;22005;-81
2023/06/10 15:13:46;;;;;;;7.70;3.30;;;;;;;26.81;24.05;100445.83;108977;1283;22859;-80
2023/06/10 15:16:30;;;;;;;5.20;3.70;;;;;;;26.84;23.71;100443.40;108638;1287;23063;-82
2023/06/10 15:19:44;;;;;;;4.90;3.60;;;;;;;26.79;23.40;100440.31;108631;1286;22032;-82
2023/06/10 15:22:45;;;;;;;5.20;2.80;;;;;;;26.77;23.59;100439.49;108673;1286;23642;-84
2023/06/10 15:25:27;;;;;;;6.00;4.40;;;;;;;26.79;23.44;100444.77;108413;1291;22055;-82
2023/06/10 15:28:04;;;;;;;7.30;3.30;;;;;;;26.76;23.13;100441.42;108212;1292;23790;-80
2023/06/10 15:30:37;;;;;;;11.70;3.40;;;;;;;26.73;22.72;100443.30;108210;1291;23657;-80
2023/06/10 15:33:14;;;;;;;7.60;3.40;;;;;;;26.68;22.44;100441.08;108159;1291;24318;-81
2023/06/10 15:36:09;;;;;;;5.70;2.80;;;;;;;26.63;22.33;100446.40;109110;1279;21994;-85
2023/06/10 15:40:22;;;;;;;;;;;;;;;;;;;;;
2023/06/10 15:46:34;;;;;;;11.50;4.50;;;;;;;26.48;22.29;100442.27;109237;1278;22186;-81
2023/06/10 15:49:25;;;;;;;8.00;3.40;;;;;;;26.48;22.04;100445.83;109172;1277;21986;-81
2023/06/10 15:52:27;;;;;;;6.30;3.80;;;;;;;26.45;21.97;100444.77;109188;1277;22790;-82
2023/06/10 15:55:13;;;;;;;7.50;3.40;;;;;;;26.46;21.93;100457.29;109231;1277;21992;-80
2023/06/10 15:58:20;;;;;;;8.50;3.50;;;;;;;26.44;21.58;100454.63;109205;1277;22035;-78
2023/06/10 16:01:27;;;;;;;5.50;3.40;;;;;;;26.44;21.35;100455.48;108618;1273;23071;-79